createdAt,value
2022-08-24T00:01:57.983Z,6.1
2022-08-24T00:13:57.870Z,6.1
2022-08-24T00:25:57.860Z,5.2
2022-08-24T00:37:57.889Z,5.2
2022-08-24T00:49:57.886Z,4.5
2022-08-24T01:01:57.889Z,4.5
2022-08-24T01:13:57.935Z,4.5
2022-08-24T01:25:58.266Z,3.9
2022-08-24T01:37:57.864Z,3.9
2022-08-24T01:49:57.873Z,3.7
2022-08-24T02:01:57.896Z,3.7
2022-08-24T02:13:57.879Z,3.7
2022-08-24T02:25:57.867Z,3.2
2022-08-24T02:37:57.866Z,3.2
2022-08-24T02:49:57.865Z,2.9
2022-08-24T03:01:57.978Z,2.9
2022-08-24T03:13:57.862Z,2.9
2022-08-24T03:25:58.540Z,2.7
2022-08-24T03:37:57.811Z,2.7
2022-08-24T03:49:57.926Z,2.7
2022-08-24T04:01:57.925Z,2.7
2022-08-24T04:13:57.855Z,2.7
2022-08-24T04:25:58.249Z,2.5
2022-08-24T04:37:57.892Z,2.5
2022-08-24T04:49:57.857Z,2.4
2022-08-24T05:01:57.922Z,2.4
2022-08-24T05:13:57.854Z,2.4
2022-08-24T05:25:58.112Z,2.0
2022-08-24T05:37:58.326Z,2.0
2022-08-24T05:49:58.379Z,2.0
2022-08-24T06:01:57.929Z,2.0
2022-08-24T06:13:59.122Z,2.0
2022-08-24T06:25:57.911Z,2.4
2022-08-24T06:37:57.848Z,2.4
2022-08-24T06:49:57.905Z,3.3
2022-08-24T07:01:57.942Z,3.3
2022-08-24T07:13:57.864Z,3.3
2022-08-24T07:25:57.870Z,3.1
2022-08-24T07:37:57.829Z,3.1
2022-08-24T07:49:57.881Z,2.5
2022-08-24T08:01:57.900Z,2.5
2022-08-24T08:13:57.861Z,2.5
2022-08-24T08:25:58.126Z,2.5
2022-08-24T08:37:58.235Z,2.5
2022-08-24T08:49:57.825Z,2.6
2022-08-24T09:01:57.893Z,2.6
2022-08-24T09:13:57.907Z,2.6
2022-08-24T09:25:57.868Z,2.7
2022-08-24T09:37:57.814Z,2.7
2022-08-24T09:49:57.885Z,2.6
2022-08-24T10:01:57.840Z,2.6
2022-08-24T10:13:57.886Z,2.6
2022-08-24T10:25:57.873Z,3.5
2022-08-24T10:37:57.866Z,3.5
2022-08-24T10:49:57.833Z,4.9
2022-08-24T11:01:57.879Z,4.9
2022-08-24T11:13:57.865Z,4.9
2022-08-24T11:25:57.819Z,4.4
2022-08-24T11:37:57.885Z,4.4
2022-08-24T11:49:57.872Z,5.4
2022-08-24T12:01:57.985Z,5.4
2022-08-24T12:13:57.864Z,5.4
2022-08-24T12:25:57.873Z,5.0
2022-08-24T12:37:57.891Z,5.0
2022-08-24T12:49:57.900Z,6.2
2022-08-24T13:01:57.944Z,6.2
2022-08-24T13:13:57.946Z,6.2
2022-08-24T13:25:57.865Z,5.8
2022-08-24T13:37:57.982Z,5.8
2022-08-24T13:49:57.879Z,4.3
2022-08-24T14:01:57.859Z,4.3
2022-08-24T14:13:57.840Z,4.3
2022-08-24T14:25:57.991Z,3.8
2022-08-24T14:37:57.934Z,3.8
2022-08-24T14:49:57.877Z,3.6
2022-08-24T15:01:57.917Z,3.6
2022-08-24T15:13:58.041Z,3.6
2022-08-24T15:25:58.043Z,2.9
2022-08-24T15:37:58.198Z,2.9
2022-08-24T15:49:58.129Z,3.6
2022-08-24T16:01:58.234Z,3.6
2022-08-24T16:13:58.296Z,3.6
2022-08-24T16:25:58.243Z,3.2
2022-08-24T16:37:58.519Z,3.2
2022-08-24T16:49:57.987Z,2.7
2022-08-24T17:01:58.017Z,2.7
2022-08-24T17:13:57.865Z,2.7
2022-08-24T17:25:57.868Z,3.7
2022-08-24T17:37:57.877Z,3.7
2022-08-24T17:49:57.873Z,2.6
2022-08-24T18:01:57.853Z,2.6
2022-08-24T18:13:58.236Z,2.6
2022-08-24T18:25:57.845Z,2.7
2022-08-24T18:37:57.858Z,2.7
2022-08-24T18:49:57.889Z,2.4
2022-08-24T19:01:58.106Z,2.4
2022-08-24T19:13:57.817Z,2.4
2022-08-24T19:25:58.449Z,2.5
2022-08-24T19:37:57.846Z,2.5
2022-08-24T19:49:57.874Z,2.1
2022-08-24T20:01:57.956Z,2.1
2022-08-24T20:13:57.858Z,2.1
2022-08-24T20:25:58.146Z,2.2
2022-08-24T20:37:58.189Z,2.2
2022-08-24T20:49:58.093Z,2.6
2022-08-24T21:01:58.241Z,2.6
2022-08-24T21:13:58.123Z,2.6
2022-08-24T21:25:58.071Z,2.6
2022-08-24T21:37:58.245Z,2.6
2022-08-24T21:49:58.241Z,2.2
2022-08-24T22:01:58.231Z,2.2
2022-08-24T22:13:58.216Z,2.2
2022-08-24T22:25:58.388Z,2.3
2022-08-24T22:37:58.428Z,2.3
2022-08-24T22:49:58.092Z,2.7
2022-08-24T23:01:58.359Z,2.7
2022-08-24T23:13:58.410Z,2.7
2022-08-24T23:25:58.214Z,2.8
2022-08-24T23:37:58.761Z,2.8
2022-08-24T23:49:58.197Z,2.7
